createdAt,value
2022-10-29T00:01:14.582Z,16.64
2022-10-29T00:03:42.940Z,16.62
2022-10-29T00:06:12.993Z,16.53
2022-10-29T00:08:42.502Z,16.55
2022-10-29T00:11:15.550Z,16.52
2022-10-29T00:13:44.242Z,16.46
2022-10-29T00:16:15.288Z,16.48
2022-10-29T00:18:43.931Z,16.46
2022-10-29T00:21:14.575Z,16.36
2022-10-29T00:23:43.334Z,16.25
2022-10-29T00:26:13.641Z,16.12
2022-10-29T00:28:42.209Z,16.04
2022-10-29T00:31:13.748Z,16.02
2022-10-29T00:33:42.135Z,15.92
2022-10-29T00:36:12.667Z,15.86
2022-10-29T00:38:41.275Z,15.81
2022-10-29T00:41:14.628Z,15.79
2022-10-29T00:43:48.355Z,15.73
2022-10-29T00:46:25.664Z,15.65
2022-10-29T00:48:57.945Z,15.60
2022-10-29T00:51:27.187Z,15.56
2022-10-29T00:53:59.313Z,15.52
2022-10-29T00:56:31.552Z,15.49
2022-10-29T00:59:00.326Z,15.45
2022-10-29T01:01:28.991Z,15.44
2022-10-29T01:04:00.055Z,15.44
2022-10-29T01:06:31.875Z,15.45
2022-10-29T01:09:00.205Z,15.48
2022-10-29T01:11:40.026Z,15.49
2022-10-29T01:14:21.059Z,15.47
2022-10-29T01:17:01.209Z,15.46
2022-10-29T01:19:53.407Z,15.48
2022-10-29T01:22:28.898Z,15.60
2022-10-29T01:25:07.946Z,15.55
2022-10-29T01:28:00.274Z,15.53
2022-10-29T01:30:49.211Z,15.48
2022-10-29T01:33:24.071Z,15.39
2022-10-29T01:35:59.969Z,15.33
2022-10-29T01:38:35.701Z,15.31
2022-10-29T01:41:13.718Z,15.31
2022-10-29T01:43:48.080Z,15.26
2022-10-29T01:46:22.788Z,15.23
2022-10-29T01:48:55.144Z,15.18
2022-10-29T01:51:27.560Z,15.12
2022-10-29T01:53:58.525Z,15.09
2022-10-29T01:56:26.943Z,15.06
2022-10-29T01:59:00.440Z,15.01
2022-10-29T02:01:41.207Z,14.91
2022-10-29T02:04:25.405Z,14.90
2022-10-29T02:07:01.249Z,14.84
2022-10-29T02:09:34.532Z,14.85
2022-10-29T02:12:09.536Z,14.80
2022-10-29T02:14:41.848Z,14.86
2022-10-29T02:17:11.549Z,14.86
2022-10-29T02:19:39.915Z,14.85
2022-10-29T02:22:08.349Z,14.82
2022-10-29T02:24:36.777Z,14.79
2022-10-29T02:27:05.208Z,14.71
2022-10-29T02:29:33.582Z,14.67
2022-10-29T02:32:01.897Z,14.65
2022-10-29T02:34:31.656Z,14.59
2022-10-29T02:37:00.039Z,14.58
2022-10-29T02:39:28.529Z,14.52
2022-10-29T02:41:56.955Z,14.49
2022-10-29T02:44:25.433Z,14.44
2022-10-29T02:46:53.923Z,14.49
2022-10-29T02:49:22.337Z,14.49
2022-10-29T02:51:52.356Z,14.42
2022-10-29T02:54:20.687Z,14.40
2022-10-29T02:56:48.990Z,14.34
2022-10-29T02:59:17.314Z,14.33
2022-10-29T03:01:45.742Z,14.26
2022-10-29T03:04:14.360Z,14.20
2022-10-29T03:06:42.710Z,14.11
2022-10-29T03:09:12.846Z,14.06
2022-10-29T03:11:41.187Z,14.02
2022-10-29T03:14:09.470Z,13.97
2022-10-29T03:16:37.906Z,13.94
2022-10-29T03:19:06.253Z,13.92
2022-10-29T03:21:34.587Z,13.89
2022-10-29T03:24:02.920Z,13.90
2022-10-29T03:26:32.580Z,13.91
2022-10-29T03:29:01.083Z,13.94
2022-10-29T03:31:29.458Z,13.90
2022-10-29T03:33:57.828Z,13.87
2022-10-29T03:36:26.398Z,13.94
2022-10-29T03:38:54.755Z,13.96
2022-10-29T03:41:23.154Z,13.93
2022-10-29T03:43:53.076Z,13.94
2022-10-29T03:46:21.429Z,13.94
2022-10-29T03:48:51.131Z,13.96
2022-10-29T03:51:19.453Z,14.04
2022-10-29T03:53:47.826Z,14.01
2022-10-29T03:56:16.182Z,14.01
2022-10-29T03:58:44.577Z,14.05
2022-10-29T04:01:14.299Z,14.06
2022-10-29T04:03:43.963Z,14.09
2022-10-29T04:06:13.814Z,14.14
2022-10-29T04:08:42.491Z,14.19
2022-10-29T04:11:13.061Z,14.17
2022-10-29T04:13:41.418Z,14.14
2022-10-29T04:16:09.850Z,14.05
2022-10-29T04:18:39.600Z,14.02
2022-10-29T04:29:33.531Z,13.82
2022-10-29T04:32:01.887Z,13.84
2022-10-29T04:34:31.586Z,13.79
2022-10-29T04:36:59.900Z,13.80
2022-10-29T04:39:28.184Z,13.76
2022-10-29T04:41:56.540Z,13.71
2022-10-29T04:44:24.938Z,13.63
2022-10-29T04:46:53.429Z,13.54
2022-10-29T04:49:21.822Z,13.54
2022-10-29T04:51:51.544Z,13.47
2022-10-29T04:54:19.862Z,13.44
2022-10-29T04:56:48.365Z,13.43
2022-10-29T04:59:17.087Z,13.42
2022-10-29T05:01:45.476Z,13.35
2022-10-29T05:04:13.811Z,13.25
2022-10-29T05:06:42.147Z,13.32
2022-10-29T05:09:12.013Z,13.32
2022-10-29T05:11:40.630Z,13.31
2022-10-29T05:14:08.941Z,13.31
2022-10-29T05:16:37.491Z,13.37
2022-10-29T05:19:06.599Z,13.34
2022-10-29T05:21:34.955Z,13.36
2022-10-29T05:24:03.301Z,13.38
2022-10-29T05:26:33.160Z,13.42
2022-10-29T05:29:01.550Z,13.46
2022-10-29T05:31:29.894Z,13.49
2022-10-29T05:33:58.535Z,13.55
2022-10-29T05:36:26.867Z,13.58
2022-10-29T05:38:55.203Z,13.56
2022-10-29T05:41:23.488Z,13.54
2022-10-29T05:43:53.272Z,13.50
2022-10-29T05:46:21.614Z,13.57
2022-10-29T05:48:49.975Z,13.45
2022-10-29T05:51:20.867Z,13.36
2022-10-29T05:53:49.672Z,13.31
2022-10-29T05:56:18.305Z,13.20
2022-10-29T05:58:50.114Z,13.14
2022-10-29T06:01:20.323Z,13.04
2022-10-29T06:03:48.805Z,12.91
2022-10-29T06:06:17.191Z,12.84
2022-10-29T06:08:45.761Z,12.72
2022-10-29T06:11:14.081Z,12.69
2022-10-29T06:13:42.798Z,12.56
2022-10-29T06:16:11.192Z,12.57
2022-10-29T06:18:40.944Z,12.54
2022-10-29T06:21:09.380Z,12.52
2022-10-29T06:23:37.943Z,12.54
2022-10-29T06:26:06.723Z,12.58
2022-10-29T06:28:35.764Z,12.74
2022-10-29T06:31:04.146Z,12.85
2022-10-29T06:33:32.827Z,12.89
2022-10-29T06:36:02.621Z,12.90
2022-10-29T06:38:30.960Z,13.01
2022-10-29T06:40:59.415Z,13.07
2022-10-29T06:43:27.821Z,13.19
2022-10-29T06:45:56.371Z,13.36
2022-10-29T06:48:24.873Z,13.50
2022-10-29T06:50:54.189Z,13.77
2022-10-29T06:53:23.968Z,14.03
2022-10-29T06:55:52.335Z,14.51
2022-10-29T06:58:21.928Z,14.91
2022-10-29T07:00:50.388Z,15.33
2022-10-29T07:03:20.445Z,15.75
2022-10-29T07:05:49.206Z,15.92
2022-10-29T07:08:17.568Z,16.13
2022-10-29T07:10:51.816Z,16.37
2022-10-29T07:13:20.317Z,16.59
2022-10-29T07:15:49.251Z,16.69
2022-10-29T07:18:17.626Z,16.71
2022-10-29T07:20:46.962Z,16.75
2022-10-29T07:23:15.498Z,16.79
2022-10-29T07:25:43.949Z,16.73
2022-10-29T07:28:16.186Z,16.67
2022-10-29T07:30:45.608Z,16.65
2022-10-29T07:33:14.577Z,16.60
2022-10-29T07:35:44.169Z,16.76
2022-10-29T07:38:14.023Z,16.70
2022-10-29T07:40:48.000Z,16.78
2022-10-29T07:43:21.821Z,16.81
2022-10-29T07:45:51.522Z,16.89
2022-10-29T07:48:21.198Z,16.94
2022-10-29T07:50:50.372Z,17.02
2022-10-29T07:53:18.752Z,17.19
2022-10-29T07:55:53.430Z,17.43
2022-10-29T07:58:23.889Z,17.60
2022-10-29T08:00:52.803Z,17.70
2022-10-29T08:03:21.256Z,17.96
2022-10-29T08:05:55.381Z,18.11
2022-10-29T08:08:25.130Z,18.27
2022-10-29T08:10:53.511Z,18.35
2022-10-29T08:13:23.262Z,18.45
2022-10-29T08:15:51.911Z,18.56
2022-10-29T08:18:20.491Z,18.67
2022-10-29T08:20:49.201Z,18.85
2022-10-29T08:23:17.911Z,19.00
2022-10-29T08:25:46.451Z,19.18
2022-10-29T08:28:16.399Z,19.28
2022-10-29T08:30:50.117Z,19.47
2022-10-29T08:33:18.582Z,19.61
2022-10-29T08:35:46.977Z,19.63
2022-10-29T08:38:15.461Z,19.61
2022-10-29T08:41:06.683Z,19.73
2022-10-29T08:46:38.563Z,19.72
2022-10-29T08:49:15.168Z,19.75
2022-10-29T08:51:47.083Z,19.78
2022-10-29T08:54:30.326Z,19.78
2022-10-29T08:57:16.100Z,20.11
2022-10-29T09:00:05.058Z,20.21
2022-10-29T09:02:35.026Z,20.36
2022-10-29T09:05:03.934Z,20.43
2022-10-29T09:08:06.328Z,20.38
2022-10-29T09:10:43.698Z,20.35
2022-10-29T09:13:43.071Z,20.47
2022-10-29T09:16:26.395Z,20.51
2022-10-29T09:19:13.350Z,20.47
2022-10-29T09:21:48.793Z,20.47
2022-10-29T09:24:26.808Z,20.36
2022-10-29T09:26:59.082Z,20.42
2022-10-29T09:29:45.924Z,20.45
2022-10-29T09:32:18.873Z,20.64
2022-10-29T09:34:51.780Z,20.87
2022-10-29T09:37:24.628Z,21.02
2022-10-29T09:39:54.304Z,21.40
2022-10-29T09:42:27.629Z,21.36
2022-10-29T09:44:59.420Z,21.40
2022-10-29T09:47:39.753Z,21.47
2022-10-29T09:50:19.891Z,21.69
2022-10-29T09:52:50.185Z,21.73
2022-10-29T09:55:24.788Z,21.45
2022-10-29T09:57:54.970Z,21.37
2022-10-29T10:00:25.794Z,21.40
2022-10-29T10:03:01.259Z,21.36
2022-10-29T10:05:33.770Z,21.39
2022-10-29T10:08:08.328Z,21.58
2022-10-29T10:10:40.566Z,21.61
2022-10-29T10:13:17.159Z,21.73
2022-10-29T10:15:52.997Z,21.94
2022-10-29T10:18:24.237Z,22.51
2022-10-29T10:21:06.451Z,22.83
2022-10-29T10:23:44.068Z,23.16
2022-10-29T10:26:31.355Z,23.39
2022-10-29T10:29:15.260Z,23.53
2022-10-29T10:31:45.183Z,24.18
2022-10-29T10:34:17.832Z,24.46
2022-10-29T10:36:51.602Z,25.25
2022-10-29T10:39:27.592Z,25.72
2022-10-29T10:41:57.584Z,25.60
2022-10-29T10:44:27.826Z,26.23
2022-10-29T10:46:59.087Z,26.56
2022-10-29T10:49:33.044Z,26.85
2022-10-29T10:52:05.454Z,27.44
2022-10-29T10:54:38.013Z,27.79
2022-10-29T10:57:21.005Z,28.63
2022-10-29T10:59:57.839Z,29.15
2022-10-29T11:02:34.990Z,28.70
2022-10-29T11:05:15.090Z,28.70
2022-10-29T11:07:49.847Z,28.62
2022-10-29T11:10:20.133Z,28.24
2022-10-29T11:12:54.321Z,28.06
2022-10-29T11:15:38.721Z,27.03
2022-10-29T11:20:50.136Z,26.01
2022-10-29T11:23:30.380Z,25.74
2022-10-29T11:26:07.890Z,25.61
2022-10-29T11:28:39.947Z,25.59
2022-10-29T11:31:17.314Z,25.70
2022-10-29T11:33:53.992Z,26.27
2022-10-29T11:36:24.653Z,26.44
2022-10-29T11:39:00.954Z,26.28
2022-10-29T11:41:35.990Z,26.73
2022-10-29T11:44:05.423Z,27.88
2022-10-29T11:46:43.252Z,28.38
2022-10-29T11:49:25.151Z,29.03
2022-10-29T11:52:06.345Z,29.36
2022-10-29T11:54:51.064Z,28.22
2022-10-29T11:57:26.046Z,27.12
2022-10-29T12:00:06.310Z,26.67
2022-10-29T12:03:22.687Z,26.37
2022-10-29T12:05:59.578Z,26.09
2022-10-29T12:08:42.994Z,26.22
2022-10-29T12:11:23.595Z,25.81
2022-10-29T12:14:02.702Z,26.50
2022-10-29T12:16:41.444Z,26.96
2022-10-29T12:19:43.305Z,28.10
2022-10-29T12:22:25.374Z,28.70
2022-10-29T12:25:12.565Z,28.80
2022-10-29T12:27:48.389Z,28.30
2022-10-29T12:30:19.040Z,27.74
2022-10-29T12:32:59.195Z,27.40
2022-10-29T12:35:34.756Z,27.19
2022-10-29T12:38:16.516Z,26.99
2022-10-29T12:40:47.237Z,26.95
2022-10-29T12:43:26.841Z,26.68
2022-10-29T12:46:19.577Z,26.81
2022-10-29T12:48:59.403Z,27.08
2022-10-29T12:51:36.542Z,27.22
2022-10-29T12:54:37.370Z,27.22
2022-10-29T12:57:07.861Z,27.07
2022-10-29T12:59:38.228Z,26.79
2022-10-29T13:02:26.777Z,26.52
2022-10-29T13:05:32.973Z,26.49
2022-10-29T13:08:20.148Z,26.34
2022-10-29T13:10:53.840Z,26.21
2022-10-29T13:13:36.347Z,26.22
2022-10-29T13:16:13.744Z,26.12
2022-10-29T13:18:50.590Z,26.00
2022-10-29T13:21:56.565Z,25.93
2022-10-29T13:24:25.704Z,25.78
2022-10-29T13:26:56.676Z,25.70
2022-10-29T13:29:45.055Z,25.56
2022-10-29T13:32:35.399Z,25.51
2022-10-29T13:35:06.657Z,25.40
2022-10-29T13:38:11.844Z,25.30
2022-10-29T13:40:56.386Z,24.97
2022-10-29T13:43:25.349Z,24.85
2022-10-29T13:46:08.038Z,24.74
2022-10-29T13:48:38.803Z,24.72
2022-10-29T13:51:11.079Z,24.64
2022-10-29T13:53:48.085Z,24.59
2022-10-29T13:56:21.725Z,24.55
2022-10-29T13:58:53.842Z,24.51
2022-10-29T14:01:23.965Z,24.34
2022-10-29T14:04:01.790Z,24.30
2022-10-29T14:06:34.348Z,24.20
2022-10-29T14:09:21.173Z,24.14
2022-10-29T14:11:58.409Z,24.03
2022-10-29T14:14:34.487Z,24.04
2022-10-29T14:17:13.475Z,24.10
2022-10-29T14:19:47.603Z,23.98
2022-10-29T14:22:37.629Z,24.00
2022-10-29T14:25:35.652Z,23.95
2022-10-29T14:28:14.481Z,23.94
2022-10-29T14:30:42.980Z,23.87
2022-10-29T14:33:24.978Z,23.77
2022-10-29T14:36:02.500Z,23.73
2022-10-29T14:38:37.934Z,23.74
2022-10-29T14:41:06.692Z,23.64
2022-10-29T14:43:36.012Z,23.55
2022-10-29T14:46:13.925Z,23.38
2022-10-29T14:48:52.557Z,23.29
2022-10-29T14:51:23.422Z,23.24
2022-10-29T14:53:59.972Z,23.10
2022-10-29T14:56:34.861Z,23.03
2022-10-29T14:59:04.388Z,22.92
2022-10-29T15:01:32.895Z,22.78
2022-10-29T15:04:01.931Z,22.66
2022-10-29T15:06:36.805Z,22.54
2022-10-29T15:09:06.614Z,22.46
2022-10-29T15:11:38.397Z,22.39
2022-10-29T15:17:00.720Z,22.18
2022-10-29T15:19:29.775Z,22.12
2022-10-29T15:22:00.560Z,22.08
2022-10-29T15:24:28.949Z,22.00
2022-10-29T15:27:00.174Z,21.94
2022-10-29T15:32:03.186Z,21.81
2022-10-29T15:34:35.025Z,21.81
2022-10-29T15:37:26.948Z,21.78
2022-10-29T15:40:10.028Z,21.65
2022-10-29T15:42:38.419Z,21.64
2022-10-29T15:45:24.753Z,21.57
2022-10-29T15:47:59.284Z,21.46
2022-10-29T15:50:31.892Z,21.43
2022-10-29T15:53:05.692Z,21.35
2022-10-29T15:55:35.922Z,21.31
2022-10-29T15:58:06.961Z,21.24
2022-10-29T16:00:35.368Z,21.33
2022-10-29T16:03:14.137Z,21.21
2022-10-29T16:05:43.989Z,21.14
2022-10-29T16:08:24.312Z,21.12
2022-10-29T16:10:52.738Z,21.07
2022-10-29T16:13:22.878Z,20.97
2022-10-29T16:15:51.387Z,20.93
2022-10-29T16:18:20.043Z,20.93
2022-10-29T16:20:48.913Z,20.91
2022-10-29T16:23:18.928Z,20.87
2022-10-29T16:25:47.304Z,20.82
2022-10-29T16:28:15.651Z,20.76
2022-10-29T16:30:45.276Z,20.75
2022-10-29T16:33:13.828Z,20.71
2022-10-29T16:35:42.212Z,20.64
2022-10-29T16:38:11.099Z,20.55
2022-10-29T16:40:42.603Z,20.54
2022-10-29T16:43:11.020Z,20.50
2022-10-29T16:45:41.268Z,20.48
2022-10-29T16:48:09.641Z,20.39
2022-10-29T16:50:37.972Z,20.29
2022-10-29T16:53:08.898Z,20.30
2022-10-29T16:55:45.206Z,20.29
2022-10-29T16:58:15.956Z,20.25
2022-10-29T17:00:44.662Z,20.17
2022-10-29T17:03:14.349Z,20.08
2022-10-29T17:05:44.835Z,20.21
2022-10-29T17:08:13.839Z,20.13
2022-10-29T17:10:43.820Z,20.14
2022-10-29T17:13:13.402Z,20.05
2022-10-29T17:15:42.582Z,20.04
2022-10-29T17:18:11.156Z,19.99
2022-10-29T17:20:39.531Z,19.99
2022-10-29T17:23:08.128Z,20.06
2022-10-29T17:25:36.465Z,20.05
2022-10-29T17:28:06.275Z,20.06
2022-10-29T17:30:35.194Z,19.98
2022-10-29T17:33:03.495Z,19.96
2022-10-29T17:35:31.860Z,19.96
2022-10-29T17:38:00.138Z,19.92
2022-10-29T17:40:28.559Z,19.86
2022-10-29T17:42:57.102Z,19.86
2022-10-29T17:45:27.048Z,19.86
2022-10-29T17:47:56.484Z,19.77
2022-10-29T17:50:26.166Z,19.71
2022-10-29T17:52:57.650Z,19.68
2022-10-29T17:55:26.159Z,19.64
2022-10-29T17:57:54.689Z,19.65
2022-10-29T18:00:23.280Z,19.59
2022-10-29T18:02:53.185Z,19.58
2022-10-29T18:05:21.799Z,19.65
2022-10-29T18:07:50.104Z,19.57
2022-10-29T18:10:18.737Z,19.58
2022-10-29T18:12:47.152Z,19.71
2022-10-29T18:15:15.905Z,19.69
2022-10-29T18:17:44.716Z,19.78
2022-10-29T18:20:14.532Z,19.82
2022-10-29T18:22:43.101Z,19.88
2022-10-29T18:25:12.142Z,19.80
2022-10-29T18:27:41.074Z,19.75
2022-10-29T18:30:10.543Z,19.74
2022-10-29T18:32:38.949Z,19.81
2022-10-29T18:35:11.324Z,19.76
2022-10-29T18:37:41.084Z,19.74
2022-10-29T18:40:10.802Z,19.70
2022-10-29T18:42:39.274Z,19.70
2022-10-29T18:45:08.909Z,19.64
2022-10-29T18:47:37.314Z,19.72
2022-10-29T18:50:06.445Z,19.74
2022-10-29T18:52:34.932Z,19.76
2022-10-29T18:55:05.006Z,19.65
2022-10-29T18:57:33.513Z,19.67
2022-10-29T19:00:01.813Z,19.77
2022-10-29T19:02:30.474Z,19.82
2022-10-29T19:04:58.879Z,19.78
2022-10-29T19:07:27.247Z,19.78
2022-10-29T19:09:55.692Z,19.74
2022-10-29T19:12:25.479Z,19.73
2022-10-29T19:14:54.257Z,19.74
2022-10-29T19:17:22.573Z,19.62
2022-10-29T19:19:50.869Z,19.61
2022-10-29T19:22:19.281Z,19.61
2022-10-29T19:24:47.640Z,19.52
2022-10-29T19:27:15.965Z,19.54
2022-10-29T19:29:45.657Z,19.54
2022-10-29T19:32:14.038Z,19.42
2022-10-29T19:34:43.823Z,19.36
2022-10-29T19:37:12.195Z,19.32
2022-10-29T19:39:40.602Z,19.37
2022-10-29T19:42:09.137Z,19.34
2022-10-29T19:44:37.480Z,19.28
2022-10-29T19:47:07.211Z,19.21
2022-10-29T19:49:35.658Z,19.19
2022-10-29T19:52:04.162Z,19.15
2022-10-29T19:54:32.489Z,19.09
2022-10-29T19:57:00.879Z,19.06
2022-10-29T19:59:29.209Z,19.01
2022-10-29T20:01:57.686Z,18.96
2022-10-29T20:04:27.527Z,18.93
2022-10-29T20:06:55.866Z,18.96
2022-10-29T20:09:24.247Z,18.91
2022-10-29T20:11:52.596Z,18.84
2022-10-29T20:14:24.055Z,18.94
2022-10-29T20:16:54.900Z,19.04
2022-10-29T20:19:23.281Z,19.20
2022-10-29T20:21:53.091Z,19.17
2022-10-29T20:24:21.572Z,19.12
2022-10-29T20:26:49.920Z,19.13
2022-10-29T20:29:18.241Z,19.10
2022-10-29T20:31:46.598Z,19.09
2022-10-29T20:34:15.246Z,19.01
2022-10-29T20:36:46.127Z,19.12
2022-10-29T20:39:16.461Z,19.04
2022-10-29T20:41:44.874Z,19.05
2022-10-29T20:44:13.181Z,19.03
2022-10-29T20:46:43.657Z,18.87
2022-10-29T20:49:12.291Z,18.81
2022-10-29T20:51:40.632Z,18.81
2022-10-29T20:54:36.841Z,18.80
2022-10-29T20:57:05.396Z,18.59
2022-10-29T20:59:33.937Z,18.40
2022-10-29T21:02:07.791Z,18.37
2022-10-29T21:04:44.261Z,18.33
2022-10-29T21:07:12.848Z,18.27
2022-10-29T21:09:42.541Z,18.22
2022-10-29T21:12:22.238Z,18.32
2022-10-29T21:14:55.053Z,18.51
2022-10-29T21:17:27.189Z,18.64
2022-10-29T21:19:58.638Z,18.65
2022-10-29T21:22:30.823Z,18.67
2022-10-29T21:25:04.764Z,18.73
2022-10-29T21:27:33.427Z,18.79
2022-10-29T21:30:05.361Z,18.78
2022-10-29T21:32:38.155Z,18.71
2022-10-29T21:35:11.863Z,18.63
2022-10-29T21:37:42.163Z,18.76
2022-10-29T21:40:15.264Z,18.68
2022-10-29T21:42:43.674Z,18.72
2022-10-29T21:45:18.089Z,18.77
2022-10-29T21:47:46.621Z,18.85
2022-10-29T21:50:17.389Z,18.83
2022-10-29T21:52:52.116Z,19.01
2022-10-29T21:55:28.889Z,19.15
2022-10-29T21:57:57.621Z,19.09
2022-10-29T22:00:26.674Z,19.04
2022-10-29T22:02:57.946Z,19.05
2022-10-29T22:05:28.832Z,19.17
2022-10-29T22:07:58.268Z,19.15
2022-10-29T22:10:30.713Z,19.13
2022-10-29T22:12:59.566Z,19.05
2022-10-29T22:15:28.178Z,19.13
2022-10-29T22:17:56.501Z,19.12
2022-10-29T22:20:25.018Z,19.04
2022-10-29T22:22:53.375Z,19.05
2022-10-29T22:25:21.792Z,19.07
2022-10-29T22:27:51.733Z,19.00
2022-10-29T22:30:20.131Z,19.00
2022-10-29T22:32:48.460Z,18.83
2022-10-29T22:35:16.903Z,18.71
2022-10-29T22:37:45.515Z,18.69
2022-10-29T22:40:13.956Z,18.76
2022-10-29T22:42:42.341Z,18.73
2022-10-29T22:45:12.398Z,18.58
2022-10-29T22:47:40.774Z,18.53
2022-10-29T22:50:09.924Z,18.62
2022-10-29T22:52:38.324Z,18.50
2022-10-29T22:55:08.135Z,18.47
2022-10-29T22:57:36.676Z,18.35
2022-10-29T23:00:05.965Z,18.27
2022-10-29T23:02:35.779Z,18.15
2022-10-29T23:05:04.270Z,18.12
2022-10-29T23:10:03.606Z,18.18
2022-10-29T23:12:34.537Z,18.07
2022-10-29T23:15:03.031Z,18.00
2022-10-29T23:17:31.472Z,17.96
2022-10-29T23:20:01.276Z,18.10
2022-10-29T23:22:29.656Z,18.20
2022-10-29T23:24:58.107Z,18.22
2022-10-29T23:27:26.503Z,18.18
2022-10-29T23:29:54.926Z,18.23
2022-10-29T23:32:23.320Z,18.27
2022-10-29T23:34:51.664Z,18.24
2022-10-29T23:37:21.422Z,18.26
2022-10-29T23:39:50.555Z,18.37
2022-10-29T23:42:18.992Z,18.27
2022-10-29T23:44:47.417Z,18.22
2022-10-29T23:47:15.779Z,18.26
2022-10-29T23:49:44.109Z,18.17
2022-10-29T23:52:12.508Z,18.24
2022-10-29T23:54:42.368Z,18.19
2022-10-29T23:57:10.702Z,18.01
2022-10-29T23:59:40.204Z,17.92
